createdAt,value
2022-09-04T00:00:14.122Z,17.02
2022-09-04T00:03:04.206Z,16.86
2022-09-04T00:05:37.610Z,16.73
2022-09-04T00:08:28.802Z,16.66
2022-09-04T00:11:00.754Z,16.67
2022-09-04T00:13:35.699Z,16.70
2022-09-04T00:16:11.328Z,16.72
2022-09-04T00:18:42.955Z,16.73
2022-09-04T00:21:18.245Z,16.74
2022-09-04T00:23:52.829Z,16.72
2022-09-04T00:26:39.784Z,16.74
2022-09-04T00:29:16.158Z,16.73
2022-09-04T00:31:50.499Z,16.72
2022-09-04T00:34:34.313Z,16.71
2022-09-04T00:37:09.824Z,16.76
2022-09-04T00:39:44.954Z,16.73
2022-09-04T00:42:29.743Z,16.81
2022-09-04T00:45:23.672Z,16.67
2022-09-04T00:48:15.000Z,16.68
2022-09-04T00:51:32.319Z,16.62
2022-09-04T00:54:11.799Z,16.54
2022-09-04T00:57:00.520Z,16.55
2022-09-04T00:59:48.027Z,16.61
2022-09-04T01:02:27.264Z,16.67
2022-09-04T01:05:04.504Z,16.69
2022-09-04T01:07:48.446Z,16.81
2022-09-04T01:10:36.309Z,16.84
2022-09-04T01:13:13.040Z,16.86
2022-09-04T01:15:45.987Z,16.87
2022-09-04T01:18:20.233Z,16.87
2022-09-04T01:21:16.690Z,16.89
2022-09-04T01:24:02.777Z,16.91
2022-09-04T01:26:41.442Z,16.93
2022-09-04T01:29:23.699Z,16.89
2022-09-04T01:31:59.798Z,16.88
2022-09-04T01:34:39.437Z,16.85
2022-09-04T01:37:21.290Z,16.82
2022-09-04T01:40:05.028Z,16.81
2022-09-04T01:42:44.099Z,16.79
2022-09-04T01:45:12.494Z,16.74
2022-09-04T01:47:47.651Z,16.70
2022-09-04T01:50:20.627Z,16.69
2022-09-04T01:52:59.801Z,16.66
2022-09-04T01:55:34.951Z,16.66
2022-09-04T01:58:16.159Z,16.65
2022-09-04T02:00:57.704Z,16.67
2022-09-04T02:03:31.760Z,16.65
2022-09-04T02:06:08.590Z,16.62
2022-09-04T02:08:58.070Z,16.63
2022-09-04T02:11:29.908Z,16.66
2022-09-04T02:14:27.525Z,16.68
2022-09-04T02:17:08.866Z,16.69
2022-09-04T02:19:46.739Z,16.69
2022-09-04T02:22:28.598Z,16.67
2022-09-04T02:25:06.398Z,16.69
2022-09-04T02:27:47.734Z,16.67
2022-09-04T02:30:20.267Z,16.68
2022-09-04T02:32:57.904Z,16.65
2022-09-04T02:35:35.598Z,16.65
2022-09-04T02:38:13.307Z,16.62
2022-09-04T02:40:51.420Z,16.66
2022-09-04T02:43:52.169Z,16.64
2022-09-04T02:46:30.833Z,16.64
2022-09-04T02:49:09.449Z,16.63
2022-09-04T02:51:54.118Z,16.62
2022-09-04T02:54:40.084Z,16.62
2022-09-04T02:57:20.510Z,16.60
2022-09-04T02:59:59.318Z,16.57
2022-09-04T03:02:34.050Z,16.54
2022-09-04T03:05:09.137Z,16.53
2022-09-04T03:07:41.175Z,16.52
2022-09-04T03:10:16.468Z,16.49
2022-09-04T03:12:49.810Z,16.44
2022-09-04T03:15:27.417Z,16.41
2022-09-04T03:18:04.621Z,16.39
2022-09-04T03:20:40.446Z,16.37
2022-09-04T03:23:17.160Z,16.37
2022-09-04T03:25:57.186Z,16.32
2022-09-04T03:28:42.645Z,16.30
2022-09-04T03:31:25.216Z,16.29
2022-09-04T03:34:05.490Z,16.25
2022-09-04T03:36:41.348Z,16.22
2022-09-04T03:39:17.140Z,16.20
2022-09-04T03:41:56.271Z,16.16
2022-09-04T03:44:32.689Z,16.16
2022-09-04T03:47:11.643Z,16.17
2022-09-04T03:49:53.604Z,16.13
2022-09-04T03:52:33.051Z,16.13
2022-09-04T03:55:36.436Z,16.11
2022-09-04T03:58:16.067Z,16.09
2022-09-04T04:00:52.187Z,16.08
2022-09-04T04:03:37.502Z,16.06
2022-09-04T04:06:17.749Z,16.05
2022-09-04T04:09:05.543Z,16.10
2022-09-04T04:11:47.363Z,16.05
2022-09-04T04:14:37.641Z,16.06
2022-09-04T04:17:23.402Z,16.06
2022-09-04T04:20:09.413Z,16.10
2022-09-04T04:22:57.351Z,16.03
2022-09-04T04:25:52.279Z,16.04
2022-09-04T04:28:59.268Z,16.04
2022-09-04T04:31:40.433Z,16.05
2022-09-04T04:34:18.325Z,16.06
2022-09-04T04:36:56.383Z,16.08
2022-09-04T04:39:35.974Z,16.10
2022-09-04T04:42:18.433Z,16.17
2022-09-04T04:45:15.682Z,16.19
2022-09-04T04:48:09.554Z,16.16
2022-09-04T04:50:49.617Z,16.17
2022-09-04T04:53:23.995Z,16.18
2022-09-04T04:55:59.240Z,16.20
2022-09-04T04:58:57.199Z,16.21
2022-09-04T05:01:36.208Z,16.21
2022-09-04T05:04:16.172Z,16.19
2022-09-04T05:06:52.252Z,16.29
2022-09-04T05:09:26.935Z,16.35
2022-09-04T05:12:02.614Z,16.42
2022-09-04T05:14:40.975Z,16.52
2022-09-04T05:17:21.690Z,16.68
2022-09-04T05:20:00.363Z,16.76
2022-09-04T05:22:37.741Z,16.88
2022-09-04T05:25:14.425Z,16.94
2022-09-04T05:28:06.366Z,17.02
2022-09-04T05:30:44.998Z,17.11
2022-09-04T05:33:24.616Z,17.19
2022-09-04T05:36:02.312Z,17.26
2022-09-04T05:38:37.315Z,17.37
2022-09-04T05:41:08.410Z,17.35
2022-09-04T05:43:57.924Z,17.35
2022-09-04T05:46:41.774Z,17.35
2022-09-04T05:49:20.856Z,17.36
2022-09-04T05:52:05.334Z,17.36
2022-09-04T05:55:05.824Z,17.31
2022-09-04T05:57:48.728Z,17.25
2022-09-04T06:00:20.158Z,17.32
2022-09-04T06:03:10.047Z,17.34
2022-09-04T06:05:47.208Z,17.38
2022-09-04T06:08:30.643Z,17.38
2022-09-04T06:11:07.595Z,17.33
2022-09-04T06:14:03.120Z,17.36
2022-09-04T06:16:46.716Z,17.35
2022-09-04T06:19:31.101Z,17.33
2022-09-04T06:22:25.487Z,17.41
2022-09-04T06:25:20.825Z,17.34
2022-09-04T06:28:14.635Z,17.44
2022-09-04T06:30:49.885Z,17.48
2022-09-04T06:33:36.768Z,17.50
2022-09-04T06:36:27.180Z,17.55
2022-09-04T06:39:16.281Z,17.57
2022-09-04T06:42:05.221Z,17.64
2022-09-04T06:44:48.236Z,17.59
2022-09-04T06:47:30.320Z,17.53
2022-09-04T06:50:21.391Z,17.44
2022-09-04T06:53:04.311Z,17.40
2022-09-04T06:55:42.595Z,17.31
2022-09-04T06:58:29.373Z,17.25
2022-09-04T07:01:04.039Z,17.26
2022-09-04T07:03:46.138Z,17.29
2022-09-04T07:06:23.383Z,17.24
2022-09-04T07:09:06.164Z,17.27
2022-09-04T07:11:53.160Z,17.33
2022-09-04T07:14:36.184Z,17.42
2022-09-04T07:17:14.412Z,17.45
2022-09-04T07:20:12.904Z,17.63
2022-09-04T07:23:22.695Z,17.80
2022-09-04T07:26:03.549Z,17.85
2022-09-04T07:28:48.413Z,17.82
2022-09-04T07:31:26.912Z,17.87
2022-09-04T07:34:03.930Z,17.85
2022-09-04T07:36:38.073Z,17.75
2022-09-04T07:39:16.185Z,17.71
2022-09-04T07:41:52.553Z,17.80
2022-09-04T07:44:29.632Z,17.92
2022-09-04T07:47:13.611Z,17.99
2022-09-04T07:49:53.974Z,18.07
2022-09-04T07:52:39.442Z,18.14
2022-09-04T07:55:21.559Z,18.20
2022-09-04T07:58:28.885Z,18.37
2022-09-04T08:01:19.853Z,18.43
2022-09-04T08:04:44.402Z,18.50
2022-09-04T08:07:20.970Z,18.58
2022-09-04T08:10:14.528Z,18.67
2022-09-04T08:13:04.757Z,18.81
2022-09-04T08:15:43.438Z,18.84
2022-09-04T08:18:29.772Z,18.91
2022-09-04T08:21:13.177Z,19.05
2022-09-04T08:24:30.938Z,19.04
2022-09-04T08:27:11.462Z,19.18
2022-09-04T08:29:57.617Z,19.25
2022-09-04T08:32:52.854Z,19.34
2022-09-04T08:35:26.707Z,19.50
2022-09-04T08:38:09.486Z,19.41
2022-09-04T08:41:22.534Z,19.44
2022-09-04T08:44:22.078Z,19.38
2022-09-04T08:47:28.311Z,19.35
2022-09-04T08:50:20.204Z,19.30
2022-09-04T08:53:27.941Z,19.43
2022-09-04T08:56:10.169Z,19.62
2022-09-04T08:59:25.104Z,19.71
2022-09-04T09:02:26.676Z,19.91
2022-09-04T09:05:23.767Z,19.87
2022-09-04T09:08:13.118Z,19.64
2022-09-04T09:11:13.097Z,19.65
2022-09-04T09:14:06.962Z,19.54
2022-09-04T09:16:44.484Z,19.57
2022-09-04T09:19:33.780Z,19.71
2022-09-04T09:22:12.444Z,19.63
2022-09-04T09:25:16.161Z,19.48
2022-09-04T09:28:09.976Z,19.34
2022-09-04T09:31:02.346Z,19.29
2022-09-04T09:33:55.530Z,19.35
2022-09-04T09:37:03.489Z,19.36
2022-09-04T09:40:06.799Z,19.49
2022-09-04T09:43:10.644Z,19.80
2022-09-04T09:46:15.874Z,20.05
2022-09-04T09:49:30.930Z,20.32
2022-09-04T09:52:16.815Z,20.24
2022-09-04T09:55:46.284Z,20.30
2022-09-04T09:58:49.595Z,20.21
2022-09-04T10:01:42.771Z,19.90
2022-09-04T10:04:50.984Z,19.58
2022-09-04T10:07:45.347Z,19.45
2022-09-04T10:10:42.634Z,19.52
2022-09-04T10:13:48.314Z,19.53
2022-09-04T10:16:58.204Z,19.43
2022-09-04T10:19:56.848Z,19.36
2022-09-04T10:23:08.096Z,19.34
2022-09-04T10:25:52.233Z,19.36
2022-09-04T10:28:59.585Z,19.50
2022-09-04T10:31:50.614Z,19.43
2022-09-04T10:34:37.084Z,19.49
2022-09-04T10:37:22.223Z,19.53
2022-09-04T10:40:27.382Z,19.59
2022-09-04T10:43:13.863Z,19.45
2022-09-04T10:45:48.395Z,19.43
2022-09-04T10:48:55.682Z,19.24
2022-09-04T10:51:45.836Z,19.16
2022-09-04T10:54:58.766Z,19.09
2022-09-04T10:57:48.046Z,19.03
2022-09-04T11:00:19.990Z,19.06
2022-09-04T11:03:31.295Z,18.93
2022-09-04T11:06:49.379Z,19.01
2022-09-04T11:09:44.962Z,18.98
2022-09-04T11:13:04.006Z,18.93
2022-09-04T11:16:00.174Z,18.99
2022-09-04T11:19:00.717Z,19.08
2022-09-04T11:22:03.784Z,19.18
2022-09-04T11:25:07.613Z,19.42
2022-09-04T11:28:06.061Z,19.61
2022-09-04T11:30:53.889Z,19.91
2022-09-04T11:33:57.104Z,20.35
2022-09-04T11:37:01.765Z,20.52
2022-09-04T11:39:56.569Z,20.52
2022-09-04T11:42:41.728Z,20.73
2022-09-04T11:45:34.135Z,20.77
2022-09-04T11:48:37.792Z,21.22
2022-09-04T11:51:28.881Z,21.42
2022-09-04T11:54:29.729Z,21.77
2022-09-04T11:57:22.055Z,22.03
2022-09-04T12:00:11.812Z,21.98
2022-09-04T12:03:07.309Z,22.23
2022-09-04T12:05:51.241Z,22.41
2022-09-04T12:08:31.173Z,22.18
2022-09-04T12:11:20.830Z,22.25
2022-09-04T12:14:10.170Z,22.20
2022-09-04T12:16:59.941Z,22.30
2022-09-04T12:19:55.684Z,22.43
2022-09-04T12:23:02.770Z,22.73
2022-09-04T12:26:13.268Z,22.93
2022-09-04T12:29:17.332Z,23.06
2022-09-04T12:32:20.701Z,23.16
2022-09-04T12:35:32.081Z,23.12
2022-09-04T12:38:39.247Z,23.06
2022-09-04T12:41:14.006Z,22.79
2022-09-04T12:43:58.790Z,22.92
2022-09-04T12:46:42.285Z,22.96
2022-09-04T12:49:30.854Z,22.84
2022-09-04T12:52:19.217Z,22.93
2022-09-04T12:55:01.476Z,22.94
2022-09-04T12:57:41.366Z,23.19
2022-09-04T13:00:12.164Z,23.46
2022-09-04T13:02:50.262Z,23.60
2022-09-04T13:05:41.876Z,23.80
2022-09-04T13:08:31.357Z,24.19
2022-09-04T13:11:09.335Z,24.77
2022-09-04T13:13:48.895Z,24.81
2022-09-04T13:16:24.231Z,25.29
2022-09-04T13:19:06.282Z,25.57
2022-09-04T13:21:55.660Z,25.36
2022-09-04T13:24:39.020Z,25.08
2022-09-04T13:27:26.545Z,24.75
2022-09-04T13:30:07.688Z,24.98
2022-09-04T13:32:46.578Z,25.61
2022-09-04T13:35:26.335Z,26.09
2022-09-04T13:38:23.214Z,26.49
2022-09-04T13:41:25.319Z,26.81
2022-09-04T13:44:22.615Z,26.81
2022-09-04T13:46:59.805Z,27.40
2022-09-04T13:49:31.057Z,27.19
2022-09-04T13:52:07.377Z,26.65
2022-09-04T13:54:43.955Z,26.22
2022-09-04T13:57:17.408Z,26.21
2022-09-04T13:59:50.154Z,26.98
2022-09-04T14:02:24.569Z,27.27
2022-09-04T14:04:56.507Z,27.31
2022-09-04T14:07:29.418Z,27.56
2022-09-04T14:10:04.357Z,26.96
2022-09-04T14:12:58.814Z,26.93
2022-09-04T14:16:02.025Z,27.02
2022-09-04T14:18:50.212Z,27.31
2022-09-04T14:21:30.648Z,27.41
2022-09-04T14:24:06.759Z,27.46
2022-09-04T14:26:48.290Z,27.29
2022-09-04T14:29:28.581Z,26.90
2022-09-04T14:32:10.325Z,26.62
2022-09-04T14:34:50.187Z,26.94
2022-09-04T14:37:36.142Z,27.34
2022-09-04T14:40:11.230Z,27.75
2022-09-04T14:42:47.992Z,27.43
2022-09-04T14:45:33.402Z,27.23
2022-09-04T14:48:05.435Z,27.01
2022-09-04T14:50:46.974Z,27.09
2022-09-04T14:53:23.980Z,26.89
2022-09-04T14:56:21.305Z,27.25
2022-09-04T14:58:55.819Z,27.78
2022-09-04T15:01:25.430Z,26.83
2022-09-04T15:04:00.125Z,26.10
2022-09-04T15:06:44.610Z,25.31
2022-09-04T15:09:23.806Z,25.00
2022-09-04T15:12:21.152Z,25.00
2022-09-04T15:14:52.697Z,24.28
2022-09-04T15:17:28.525Z,24.38
2022-09-04T15:20:03.792Z,24.19
2022-09-04T15:22:39.586Z,23.68
2022-09-04T15:25:10.198Z,23.57
2022-09-04T15:27:47.349Z,23.34
2022-09-04T15:30:23.642Z,23.14
2022-09-04T15:33:05.127Z,23.24
2022-09-04T15:35:34.299Z,23.24
2022-09-04T15:38:08.446Z,23.36
2022-09-04T15:40:59.718Z,23.33
2022-09-04T15:43:38.959Z,23.40
2022-09-04T15:46:17.883Z,23.52
2022-09-04T15:48:53.641Z,23.53
2022-09-04T15:51:37.267Z,23.42
2022-09-04T15:54:29.277Z,23.29
2022-09-04T15:57:08.483Z,23.15
2022-09-04T15:59:49.976Z,22.93
2022-09-04T16:02:36.412Z,22.81
2022-09-04T16:05:15.148Z,22.78
2022-09-04T16:07:49.956Z,22.76
2022-09-04T16:10:27.432Z,22.70
2022-09-04T16:13:02.594Z,22.74
2022-09-04T16:15:34.382Z,22.98
2022-09-04T16:18:18.879Z,22.94
2022-09-04T16:20:52.121Z,22.91
2022-09-04T16:23:29.670Z,22.98
2022-09-04T16:25:59.912Z,22.84
2022-09-04T16:28:32.778Z,22.82
2022-09-04T16:31:03.588Z,22.75
2022-09-04T16:33:35.048Z,22.56
2022-09-04T16:36:06.775Z,22.51
2022-09-04T16:38:47.419Z,22.46
2022-09-04T16:41:25.531Z,22.35
2022-09-04T16:44:16.445Z,22.29
2022-09-04T16:47:03.025Z,22.20
2022-09-04T16:49:40.648Z,22.19
2022-09-04T16:52:31.902Z,22.10
2022-09-04T16:55:10.065Z,22.01
2022-09-04T16:57:43.392Z,21.91
2022-09-04T17:00:14.261Z,21.94
2022-09-04T17:02:50.825Z,21.86
2022-09-04T17:05:35.011Z,21.79
2022-09-04T17:08:11.809Z,21.74
2022-09-04T17:10:46.542Z,21.73
2022-09-04T17:13:21.569Z,21.73
2022-09-04T17:16:00.282Z,21.69
2022-09-04T17:18:30.416Z,21.65
2022-09-04T17:28:54.042Z,21.63
2022-09-04T17:28:57.952Z,21.64
2022-09-04T17:29:13.392Z,21.61
2022-09-04T17:29:51.637Z,21.58
2022-09-04T17:33:22.645Z,21.48
2022-09-04T17:40:35.811Z,21.43
2022-09-04T17:40:57.149Z,21.38
2022-09-04T17:41:44.145Z,21.37
2022-09-04T17:44:31.866Z,21.29
2022-09-04T17:47:14.204Z,21.19
2022-09-04T17:49:47.852Z,21.13
2022-09-04T17:52:24.739Z,21.08
2022-09-04T17:54:57.697Z,21.00
2022-09-04T17:57:47.246Z,20.95
2022-09-04T18:00:21.096Z,20.92
2022-09-04T18:02:53.567Z,20.82
2022-09-04T18:05:25.201Z,20.79
2022-09-04T18:08:08.123Z,20.70
2022-09-04T18:10:52.350Z,20.60
2022-09-04T18:13:38.065Z,20.57
2022-09-04T18:16:20.749Z,20.53
2022-09-04T18:18:51.912Z,20.49
2022-09-04T18:21:24.732Z,20.50
2022-09-04T18:24:00.707Z,20.47
2022-09-04T18:26:40.653Z,20.49
2022-09-04T18:33:14.095Z,20.45
2022-09-04T18:37:15.725Z,20.47
2022-09-04T18:37:18.384Z,20.43
2022-09-04T18:38:47.125Z,20.42
2022-09-04T18:46:21.351Z,20.40
2022-09-04T18:50:33.353Z,20.35
2022-09-04T18:50:44.668Z,20.27
2022-09-04T18:50:52.396Z,20.13
2022-09-04T18:53:11.003Z,20.10
2022-09-04T18:55:46.958Z,20.03
2022-09-04T18:58:50.985Z,19.96
2022-09-04T19:01:27.259Z,19.90
2022-09-04T19:03:58.800Z,19.90
2022-09-04T19:06:35.027Z,19.86
2022-09-04T19:09:12.524Z,19.78
2022-09-04T19:11:46.541Z,19.76
2022-09-04T19:14:20.482Z,19.79
2022-09-04T19:16:51.742Z,19.83
2022-09-04T19:19:25.577Z,19.85
2022-09-04T19:22:04.009Z,19.87
2022-09-04T19:24:39.803Z,19.84
2022-09-04T19:27:20.584Z,19.81
2022-09-04T19:30:17.709Z,19.73
2022-09-04T19:33:05.454Z,19.69
2022-09-04T19:35:39.094Z,19.68
2022-09-04T19:43:34.409Z,19.64
2022-09-04T19:45:59.055Z,19.64
2022-09-04T19:46:17.661Z,19.62
2022-09-04T19:47:05.476Z,19.60
2022-09-04T19:52:46.467Z,19.65
2022-09-04T19:53:31.420Z,19.62
2022-09-04T19:55:42.038Z,19.66
2022-09-04T19:58:11.913Z,19.67
2022-09-04T20:00:47.609Z,19.65
2022-09-04T20:03:30.554Z,19.60
2022-09-04T20:06:21.192Z,19.55
2022-09-04T20:08:58.828Z,19.48
2022-09-04T20:11:36.062Z,19.49
2022-09-04T20:14:15.088Z,19.48
2022-09-04T20:16:51.848Z,19.48
2022-09-04T20:19:28.488Z,19.48
2022-09-04T20:22:01.877Z,19.46
2022-09-04T20:24:39.802Z,19.44
2022-09-04T20:27:15.945Z,19.41
2022-09-04T20:29:55.078Z,19.40
2022-09-04T20:32:28.503Z,19.39
2022-09-04T20:35:13.751Z,19.33
2022-09-04T20:37:53.519Z,19.29
2022-09-04T20:40:31.460Z,19.28
2022-09-04T20:43:14.608Z,19.24
2022-09-04T20:49:00.903Z,19.27
2022-09-04T20:52:55.060Z,19.33
2022-09-04T20:53:04.553Z,19.35
2022-09-04T20:54:48.877Z,19.29
2022-09-04T21:00:57.418Z,19.17
2022-09-04T21:03:10.001Z,19.10
2022-09-04T21:03:28.253Z,19.11
2022-09-04T21:06:22.728Z,19.14
2022-09-04T21:09:00.205Z,19.13
2022-09-04T21:11:39.432Z,18.94
2022-09-04T21:14:15.636Z,18.94
2022-09-04T21:17:29.058Z,18.90
2022-09-04T21:21:00.164Z,18.78
2022-09-04T21:24:03.212Z,18.70
2022-09-04T21:27:02.266Z,18.67
2022-09-04T21:29:45.807Z,18.51
2022-09-04T21:32:31.953Z,18.33
2022-09-04T21:35:11.164Z,18.25
2022-09-04T21:37:48.095Z,18.22
2022-09-04T21:41:08.224Z,18.24
2022-09-04T21:44:12.317Z,18.25
2022-09-04T21:46:58.072Z,18.17
2022-09-04T21:49:46.086Z,18.17
2022-09-04T21:52:33.256Z,18.17
2022-09-04T21:57:05.508Z,18.18
2022-09-04T22:02:37.641Z,18.21
2022-09-04T22:02:46.080Z,18.17
2022-09-04T22:04:48.365Z,18.13
2022-09-04T22:10:39.887Z,18.13
2022-09-04T22:13:44.178Z,18.13
2022-09-04T22:13:49.285Z,18.12
2022-09-04T22:16:42.195Z,18.08
2022-09-04T22:19:45.265Z,18.05
2022-09-04T22:22:35.126Z,17.90
2022-09-04T22:25:33.518Z,17.80
2022-09-04T22:28:41.234Z,17.75
2022-09-04T22:31:40.936Z,17.75
2022-09-04T22:34:36.622Z,17.74
2022-09-04T22:37:40.474Z,17.72
2022-09-04T22:40:52.683Z,17.69
2022-09-04T22:43:24.251Z,17.64
2022-09-04T22:46:27.239Z,17.62
2022-09-04T22:49:26.030Z,17.60
2022-09-04T22:52:16.684Z,17.70
2022-09-04T22:54:56.998Z,17.75
2022-09-04T22:57:44.908Z,17.63
2022-09-04T23:00:18.297Z,17.55
2022-09-04T23:03:13.847Z,17.53
2022-09-04T23:08:05.759Z,17.55
2022-09-04T23:13:42.255Z,17.48
2022-09-04T23:13:46.411Z,17.36
2022-09-04T23:15:28.827Z,17.32
2022-09-04T23:22:27.709Z,17.31
2022-09-04T23:26:38.494Z,17.28
2022-09-04T23:26:44.826Z,17.23
2022-09-04T23:27:29.485Z,17.18
2022-09-04T23:30:26.455Z,17.14
2022-09-04T23:33:27.171Z,17.15
2022-09-04T23:36:10.719Z,17.09
2022-09-04T23:39:02.157Z,17.03
2022-09-04T23:41:55.195Z,16.95
2022-09-04T23:44:50.304Z,16.96
2022-09-04T23:47:51.862Z,16.92
2022-09-04T23:50:30.949Z,16.87
2022-09-04T23:53:12.217Z,16.87
2022-09-04T23:56:04.458Z,16.89
2022-09-04T23:59:06.979Z,16.86
